This is the latest recevied weather packets stored in our database for station/object K7JGC-9. If no packets are shown the sender has not sent any weather packets the latest 1 day(s).
| Time | Temp. | Humidity | Pressure | Rain* | Wind** | Luminosity | Snow |
|---|---|---|---|---|---|---|---|
| 1836274565 | 21.67° C | 56% | 1013 hPa | 0 mm | 0 m/s | 0 W/m² | - |
| 1778048514 | 14.44° C | 88% | 1017.7 hPa | 0 mm | 0 m/s | 0 W/m² | - |
| 1778046714 | 13.89° C | 88% | 1017.4 hPa | 0 mm | 0 m/s | 0 W/m² | - |
| 1778044911 | 13.33° C | 89% | 1017.3 hPa | 0 mm | 0 m/s | 0 W/m² | - |
| 1778043110 | 12.78° C | 89% | 1017.1 hPa | 0 mm | 0 m/s | 0 W/m² | - |
| 1778041308 | 13.33° C | 87% | 1016.8 hPa | 0 mm | 0 m/s | 0 W/m² | - |
| 1778039509 | 13.89° C | 85% | 1016.4 hPa | 0 mm | 0 m/s | 0 W/m² | - |
| 1778037709 | 15° C | 81% | 1016.1 hPa | 0 mm | 0 m/s | 1 W/m² | - |
| 1778035908 | 15.56° C | 78% | 1015.9 hPa | 0 mm | 0 m/s | 11 W/m² | - |
| 1778034107 | 16.67° C | 75% | 1016.1 hPa | 0 mm | 0 m/s | 15 W/m² | - |
| 1778032303 | 17.22° C | 72% | 1015.7 hPa | 0 mm | 0 m/s | 28 W/m² | - |
| 1778030501 | 18.33° C | 70% | 1015.7 hPa | 0 mm | 0 m/s | 28 W/m² | - |
| 1778028696 | 18.33° C | 71% | 1015.9 hPa | 0 mm | 0 m/s | 56 W/m² | - |
| 1778026891 | 17.78° C | 74% | 1016.1 hPa | 0 mm | 0 m/s | 69 W/m² | - |
| 1778025091 | 17.78° C | 69% | 1016.3 hPa | 0 mm | 0 m/s | 69 W/m² | - |
| 1778023291 | 17.78° C | 70% | 1016.6 hPa | 0 mm | 0 m/s | 63 W/m² | - |
| 1778021491 | 18.33° C | 69% | 1016.7 hPa | 0 mm | 0 m/s | 64 W/m² | - |
| 1778019688 | 18.89° C | 67% | 1016.7 hPa | 0 mm | 0 m/s | 123 W/m² | - |
| 1778017885 | 18.89° C | 68% | 1016.8 hPa | 0 mm | 0 m/s | 156 W/m² | - |
| 1778016084 | 17.78° C | 70% | 1016.9 hPa | 0 mm | 0 m/s | 140 W/m² | - |
| 1778014285 | 17.78° C | 70% | 1017.1 hPa | 0 mm | 0 m/s | 131 W/m² | - |
| 1778012482 | 17.78° C | 73% | 1017.2 hPa | 0 mm | 0 m/s | 139 W/m² | - |
| 1778010683 | 16.67° C | 73% | 1017.4 hPa | 0 mm | 0 m/s | 136 W/m² | - |
| 1778008883 | 16.11° C | 75% | 1017.5 hPa | 0 mm | 0 m/s | 99 W/m² | - |
| 1778007080 | 15.56° C | 77% | 1017.5 hPa | 0 mm | 0 m/s | 70 W/m² | - |
* Rain latest hour (hover to see other rain measurements)
** Current wind speed in m/s (hover to see current wind gust speed)